Time;durP1;ratioP1;P1;durP2;ratioP2;P2;SDS_P1;SDS_P2;PMS_P1;PMS_P2;Temp;Humidity;BMP_temperature;BMP_pressure;BME280_temperature;BME280_humidity;BME280_pressure;Samples;Min_cycle;Max_cycle;Signal;HPM_P1;HPM_P2
2022/07/29 00:01:30;;;;;;;0.73;0.73;;;;;;;;;;5067642;28;20297;-82
2022/07/29 00:03:57;;;;;;;1.00;1.00;;;;;;;;;;5068445;28;20225;-80
2022/07/29 00:06:25;;;;;;;0.82;0.80;;;;;;;;;;5066973;28;20233;-81
2022/07/29 00:08:55;;;;;;;1.35;1.25;;;;;;;;;;5068252;28;20621;-81
2022/07/29 00:11:22;;;;;;;1.45;1.02;;;;;;;;;;5068018;28;20209;-81
2022/07/29 00:13:50;;;;;;;0.80;0.80;;;;;;;;;;5066078;28;20221;-82
2022/07/29 00:16:17;;;;;;;1.25;1.15;;;;;;;;;;5067099;28;20202;-81
2022/07/29 00:18:45;;;;;;;1.55;0.90;;;;;;;;;;5067576;28;20588;-81
2022/07/29 00:21:12;;;;;;;0.80;0.80;;;;;;;;;;5053101;28;20565;-80
2022/07/29 00:23:40;;;;;;;0.80;0.80;;;;;;;;;;5046105;28;20253;-81
2022/07/29 00:26:09;;;;;;;1.70;1.05;;;;;;;;;;5045746;28;20207;-81
2022/07/29 00:28:36;;;;;;;0.80;0.80;;;;;;;;;;5046391;28;20674;-81
2022/07/29 00:31:04;;;;;;;0.85;0.85;;;;;;;;;;5045339;28;20259;-81
2022/07/29 00:33:31;;;;;;;1.23;0.90;;;;;;;;;;5046656;28;20230;-81
2022/07/29 00:35:58;;;;;;;2.58;0.90;;;;;;;;;;5047332;28;20213;-81
2022/07/29 00:38:26;;;;;;;1.00;0.90;;;;;;;;;;5046419;28;20252;-79
2022/07/29 00:40:53;;;;;;;1.05;0.95;;;;;;;;;;5046764;28;20226;-81
2022/07/29 00:43:22;;;;;;;2.67;1.38;;;;;;;;;;5046864;28;20291;-82
2022/07/29 00:45:50;;;;;;;1.40;0.95;;;;;;;;;;5046577;28;20222;-80
2022/07/29 00:48:17;;;;;;;1.38;0.82;;;;;;;;;;5046110;28;20206;-81
2022/07/29 00:50:45;;;;;;;1.10;0.70;;;;;;;;;;5047099;28;20740;-81
2022/07/29 00:53:13;;;;;;;0.93;0.70;;;;;;;;;;5047116;28;20229;-80
2022/07/29 00:55:41;;;;;;;0.85;0.70;;;;;;;;;;5046839;28;20233;-82
2022/07/29 00:58:09;;;;;;;0.98;0.98;;;;;;;;;;5045649;28;20217;-80
2022/07/29 01:00:40;;;;;;;2.70;1.08;;;;;;;;;;5046372;28;20202;-79
2022/07/29 01:03:08;;;;;;;0.93;0.80;;;;;;;;;;5045996;28;20218;-81
2022/07/29 01:05:36;;;;;;;1.33;1.23;;;;;;;;;;5045233;28;20202;-82
2022/07/29 01:08:05;;;;;;;0.82;0.82;;;;;;;;;;5045731;28;20194;-82
2022/07/29 01:10:33;;;;;;;1.50;1.40;;;;;;;;;;5046161;28;20229;-80
2022/07/29 01:13:02;;;;;;;1.23;0.85;;;;;;;;;;5045534;28;20230;-79
2022/07/29 01:15:30;;;;;;;0.75;0.75;;;;;;;;;;5045762;28;20210;-81
2022/07/29 01:18:05;;;;;;;1.55;1.00;;;;;;;;;;5044508;28;20225;-82
2022/07/29 01:20:53;;;;;;;1.02;1.02;;;;;;;;;;5054923;28;20205;-82
2022/07/29 01:23:53;;;;;;;1.98;0.98;;;;;;;;;;5066063;28;20232;-81
2022/07/29 01:26:41;;;;;;;1.23;1.13;;;;;;;;;;5065834;28;20200;-79
2022/07/29 01:29:15;;;;;;;0.82;0.82;;;;;;;;;;5067054;28;20211;-80
2022/07/29 01:31:46;;;;;;;2.08;1.30;;;;;;;;;;5066331;28;20698;-81
2022/07/29 01:34:22;;;;;;;2.67;0.98;;;;;;;;;;5066402;28;20237;-79
2022/07/29 01:36:56;;;;;;;0.80;0.80;;;;;;;;;;5066235;28;20206;-81
2022/07/29 01:39:30;;;;;;;1.55;1.15;;;;;;;;;;5067502;28;20646;-80
2022/07/29 01:42:07;;;;;;;0.90;0.82;;;;;;;;;;5066595;28;20236;-80
2022/07/29 01:44:41;;;;;;;0.93;0.93;;;;;;;;;;5065863;28;20177;-81
2022/07/29 01:47:15;;;;;;;1.73;0.90;;;;;;;;;;5065730;28;20201;-81
2022/07/29 01:49:47;;;;;;;0.80;0.80;;;;;;;;;;5064799;28;20210;-81
2022/07/29 01:52:21;;;;;;;1.85;0.90;;;;;;;;;;5046258;28;20203;-81
2022/07/29 01:54:55;;;;;;;0.95;0.95;;;;;;;;;;5047317;28;20253;-82
2022/07/29 01:57:29;;;;;;;0.82;0.82;;;;;;;;;;5045638;28;20206;-79
2022/07/29 02:00:00;;;;;;;0.90;0.90;;;;;;;;;;5046974;28;20197;-80
2022/07/29 02:02:29;;;;;;;1.10;1.00;;;;;;;;;;5046205;28;20224;-80
2022/07/29 02:04:57;;;;;;;0.80;0.80;;;;;;;;;;5045439;28;20225;-80
2022/07/29 02:07:27;;;;;;;0.65;0.63;;;;;;;;;;5045299;28;20230;-81
2022/07/29 02:09:55;;;;;;;1.15;0.88;;;;;;;;;;5045644;28;20199;-81
2022/07/29 02:12:23;;;;;;;2.22;0.90;;;;;;;;;;5046098;28;20222;-81
2022/07/29 02:14:54;;;;;;;1.55;1.00;;;;;;;;;;5046454;28;20211;-81
2022/07/29 02:17:26;;;;;;;0.80;0.80;;;;;;;;;;5045200;28;20190;-82
2022/07/29 02:19:55;;;;;;;0.77;0.73;;;;;;;;;;5048820;28;20198;-81
2022/07/29 02:22:23;;;;;;;1.98;1.23;;;;;;;;;;5065777;28;20221;-81
2022/07/29 02:24:51;;;;;;;0.80;0.80;;;;;;;;;;5066720;28;20202;-81
2022/07/29 02:27:21;;;;;;;0.70;0.70;;;;;;;;;;5066173;28;20205;-81
2022/07/29 02:29:49;;;;;;;0.85;0.85;;;;;;;;;;5066375;28;20202;-82
2022/07/29 02:32:18;;;;;;;0.77;0.70;;;;;;;;;;5065643;28;20783;-81
2022/07/29 02:34:48;;;;;;;0.80;0.80;;;;;;;;;;5066502;28;20208;-81
2022/07/29 02:37:18;;;;;;;0.90;0.90;;;;;;;;;;5066006;28;20224;-80
2022/07/29 02:39:47;;;;;;;0.98;0.82;;;;;;;;;;5065568;28;20718;-81
2022/07/29 02:42:17;;;;;;;0.90;0.90;;;;;;;;;;5066247;28;20212;-82
2022/07/29 02:44:45;;;;;;;0.82;0.82;;;;;;;;;;5065188;28;20198;-82
2022/07/29 02:47:18;;;;;;;2.55;1.00;;;;;;;;;;5064214;28;20640;-81
2022/07/29 02:49:53;;;;;;;0.90;0.90;;;;;;;;;;5061812;28;20208;-83
2022/07/29 02:52:27;;;;;;;1.73;0.93;;;;;;;;;;5044487;28;20221;-83
2022/07/29 02:54:59;;;;;;;1.27;0.90;;;;;;;;;;5046424;28;20186;-83
2022/07/29 02:57:34;;;;;;;0.90;0.90;;;;;;;;;;5046903;28;20190;-83
2022/07/29 03:00:08;;;;;;;0.82;0.82;;;;;;;;;;5047502;28;20209;-82
2022/07/29 03:02:39;;;;;;;0.85;0.80;;;;;;;;;;5046639;28;20226;-83
2022/07/29 03:05:12;;;;;;;0.70;0.70;;;;;;;;;;5046672;28;20233;-83
2022/07/29 03:07:40;;;;;;;0.80;0.80;;;;;;;;;;5045360;28;20710;-82
2022/07/29 03:10:09;;;;;;;0.80;0.80;;;;;;;;;;5046522;28;20206;-81
2022/07/29 03:12:37;;;;;;;0.95;0.82;;;;;;;;;;5045985;28;20226;-82
2022/07/29 03:15:06;;;;;;;1.23;1.23;;;;;;;;;;5046246;28;20270;-83
2022/07/29 03:17:35;;;;;;;1.10;1.05;;;;;;;;;;5045430;28;20222;-82
2022/07/29 03:20:03;;;;;;;0.80;0.80;;;;;;;;;;5049178;28;20201;-82
2022/07/29 03:22:32;;;;;;;0.70;0.70;;;;;;;;;;5065508;28;20241;-83
2022/07/29 03:25:08;;;;;;;0.85;0.80;;;;;;;;;;5064850;28;20229;-83
2022/07/29 03:27:36;;;;;;;1.95;1.00;;;;;;;;;;5064501;28;20567;-83
2022/07/29 03:30:04;;;;;;;2.47;1.25;;;;;;;;;;5065805;28;20232;-82
2022/07/29 03:32:31;;;;;;;1.75;0.90;;;;;;;;;;5064690;28;20644;-83
2022/07/29 03:34:59;;;;;;;0.95;0.95;;;;;;;;;;5064260;28;20213;-82
2022/07/29 03:37:26;;;;;;;1.38;0.70;;;;;;;;;;5063947;28;20224;-83
2022/07/29 03:39:57;;;;;;;0.88;0.82;;;;;;;;;;5064499;28;20193;-82
2022/07/29 03:44:58;;;;;;;0.80;0.80;;;;;;;;;;5100344;28;20571;-82
2022/07/29 03:47:28;;;;;;;0.88;0.77;;;;;;;;;;5111471;28;20202;-86
2022/07/29 03:50:03;;;;;;;0.80;0.80;;;;;;;;;;5121198;28;20190;-85
2022/07/29 03:52:30;;;;;;;1.00;1.00;;;;;;;;;;5121180;28;20241;-85
2022/07/29 03:54:59;;;;;;;1.05;0.93;;;;;;;;;;5120637;28;20567;-86
2022/07/29 03:57:29;;;;;;;0.90;0.80;;;;;;;;;;5119996;28;20228;-86
2022/07/29 03:59:57;;;;;;;0.77;0.77;;;;;;;;;;5121567;28;20319;-85
2022/07/29 04:02:25;;;;;;;0.90;0.90;;;;;;;;;;5120381;28;20227;-85
2022/07/29 04:04:53;;;;;;;1.00;0.88;;;;;;;;;;5120695;28;20283;-86
2022/07/29 04:07:20;;;;;;;0.75;0.70;;;;;;;;;;5121401;28;20263;-85
2022/07/29 04:09:48;;;;;;;1.00;0.70;;;;;;;;;;5121217;28;20228;-86
2022/07/29 04:12:17;;;;;;;0.80;0.80;;;;;;;;;;5120975;28;20265;-83
2022/07/29 04:14:44;;;;;;;1.25;1.15;;;;;;;;;;5114480;28;20212;-85
2022/07/29 04:17:12;;;;;;;1.55;1.13;;;;;;;;;;5100902;28;20265;-84
2022/07/29 04:19:39;;;;;;;1.75;0.95;;;;;;;;;;5101847;28;20193;-86
2022/07/29 04:22:07;;;;;;;1.13;1.08;;;;;;;;;;5100798;28;20196;-86
2022/07/29 04:24:35;;;;;;;1.00;1.00;;;;;;;;;;5101591;28;20560;-84
2022/07/29 04:27:02;;;;;;;1.20;1.10;;;;;;;;;;5101303;28;20204;-86
2022/07/29 04:29:31;;;;;;;1.20;1.10;;;;;;;;;;5100939;28;20200;-82
2022/07/29 04:31:59;;;;;;;1.00;0.98;;;;;;;;;;5101207;28;20243;-85
2022/07/29 04:34:26;;;;;;;1.77;1.30;;;;;;;;;;5101029;28;20212;-84
2022/07/29 04:36:54;;;;;;;1.73;1.20;;;;;;;;;;5101436;28;20196;-85
2022/07/29 04:39:21;;;;;;;1.00;1.00;;;;;;;;;;5100998;28;20242;-84
2022/07/29 04:41:49;;;;;;;0.70;0.70;;;;;;;;;;5100629;28;20677;-85
2022/07/29 04:44:17;;;;;;;1.30;1.20;;;;;;;;;;5099156;28;20255;-85
2022/07/29 04:46:47;;;;;;;0.93;0.90;;;;;;;;;;5079939;28;20221;-86
2022/07/29 04:49:14;;;;;;;0.95;0.95;;;;;;;;;;5080989;28;20846;-86
2022/07/29 04:51:42;;;;;;;0.90;0.88;;;;;;;;;;5079877;28;20205;-85
2022/07/29 04:54:09;;;;;;;0.90;0.90;;;;;;;;;;5080979;28;20212;-86
2022/07/29 04:56:37;;;;;;;2.40;1.00;;;;;;;;;;5079801;28;20201;-85
2022/07/29 04:59:04;;;;;;;1.88;1.10;;;;;;;;;;5080316;28;20228;-85
2022/07/29 05:01:32;;;;;;;0.77;0.77;;;;;;;;;;5078240;28;20651;-85
2022/07/29 05:04:01;;;;;;;1.33;1.05;;;;;;;;;;5078449;28;20248;-86
2022/07/29 05:06:29;;;;;;;2.28;1.00;;;;;;;;;;5078986;28;20200;-87
2022/07/29 05:08:56;;;;;;;1.15;0.80;;;;;;;;;;5080433;28;20205;-86
2022/07/29 05:11:24;;;;;;;1.38;0.85;;;;;;;;;;5079565;28;20562;-85
2022/07/29 05:13:51;;;;;;;1.27;1.20;;;;;;;;;;5080739;28;20278;-83
2022/07/29 05:16:19;;;;;;;1.23;1.05;;;;;;;;;;5099407;28;20236;-83
2022/07/29 05:18:46;;;;;;;1.83;1.38;;;;;;;;;;5101234;28;20242;-82
2022/07/29 05:21:15;;;;;;;1.35;0.90;;;;;;;;;;5101136;28;20648;-83
2022/07/29 05:23:42;;;;;;;0.90;0.90;;;;;;;;;;5101181;28;20223;-84
2022/07/29 05:26:10;;;;;;;1.38;0.70;;;;;;;;;;5101020;28;20204;-82
2022/07/29 05:28:37;;;;;;;1.02;0.93;;;;;;;;;;5100076;28;20200;-81
2022/07/29 05:31:05;;;;;;;1.00;1.00;;;;;;;;;;5099506;28;20204;-84
2022/07/29 05:33:32;;;;;;;1.13;1.00;;;;;;;;;;5101034;28;20267;-84
2022/07/29 05:36:00;;;;;;;3.33;1.00;;;;;;;;;;5100342;28;20695;-84
2022/07/29 05:38:29;;;;;;;1.75;1.08;;;;;;;;;;5100489;28;20728;-83
2022/07/29 05:40:59;;;;;;;1.42;1.25;;;;;;;;;;5100711;28;20228;-82
2022/07/29 05:43:27;;;;;;;1.30;1.10;;;;;;;;;;5086447;28;20226;-83
2022/07/29 05:45:54;;;;;;;0.70;0.70;;;;;;;;;;5100893;28;20192;-84
2022/07/29 05:48:22;;;;;;;1.13;1.05;;;;;;;;;;5102841;28;20199;-82
2022/07/29 05:50:49;;;;;;;0.63;0.63;;;;;;;;;;5121358;28;20261;-85
2022/07/29 05:53:17;;;;;;;0.80;0.80;;;;;;;;;;5120613;28;20683;-84
2022/07/29 05:55:46;;;;;;;1.33;0.90;;;;;;;;;;5102016;28;20232;-83
2022/07/29 05:58:13;;;;;;;1.17;1.08;;;;;;;;;;5087596;28;20197;-85
2022/07/29 06:00:41;;;;;;;0.95;0.95;;;;;;;;;;5100863;28;20632;-84
2022/07/29 06:03:09;;;;;;;0.82;0.82;;;;;;;;;;5100449;28;20280;-84
2022/07/29 06:05:36;;;;;;;1.30;1.30;;;;;;;;;;5100645;28;20221;-83
2022/07/29 06:08:05;;;;;;;1.15;1.05;;;;;;;;;;5100724;28;20201;-85
2022/07/29 06:10:33;;;;;;;2.40;1.02;;;;;;;;;;5099946;28;20200;-84
2022/07/29 06:13:01;;;;;;;1.00;0.80;;;;;;;;;;5100479;28;20270;-81
2022/07/29 06:15:29;;;;;;;1.00;1.00;;;;;;;;;;5086583;28;20209;-84
2022/07/29 06:17:56;;;;;;;1.33;1.08;;;;;;;;;;5079592;28;20200;-82
2022/07/29 06:20:24;;;;;;;1.00;1.00;;;;;;;;;;5078632;28;20247;-84
2022/07/29 06:22:51;;;;;;;0.70;0.70;;;;;;;;;;5079492;28;20248;-85
2022/07/29 06:25:19;;;;;;;0.90;0.90;;;;;;;;;;5084435;28;20208;-84
2022/07/29 06:27:47;;;;;;;1.00;0.93;;;;;;;;;;5079732;28;20209;-84
2022/07/29 06:30:16;;;;;;;0.70;0.70;;;;;;;;;;5082953;28;20560;-85
2022/07/29 06:32:43;;;;;;;1.38;1.27;;;;;;;;;;5083985;28;20200;-84
2022/07/29 06:35:11;;;;;;;0.82;0.82;;;;;;;;;;5085217;28;20201;-84
2022/07/29 06:37:39;;;;;;;1.02;1.00;;;;;;;;;;5084341;28;20201;-83
2022/07/29 06:42:52;;;;;;;0.90;0.90;;;;;;;;;;5084398;28;20281;-83
2022/07/29 06:45:21;;;;;;;0.80;0.80;;;;;;;;;;5096092;28;20273;-85
2022/07/29 06:47:49;;;;;;;0.80;0.80;;;;;;;;;;5104459;28;20279;-84
2022/07/29 06:50:17;;;;;;;1.98;0.70;;;;;;;;;;5114120;28;20199;-84
2022/07/29 06:52:44;;;;;;;1.08;1.08;;;;;;;;;;5123892;28;20231;-85
2022/07/29 06:55:12;;;;;;;0.93;0.93;;;;;;;;;;5124326;28;20199;-85
2022/07/29 06:57:40;;;;;;;0.90;0.90;;;;;;;;;;5124302;28;20610;-85
2022/07/29 07:00:10;;;;;;;1.00;0.90;;;;;;;;;;5125201;28;20583;-83
2022/07/29 07:02:39;;;;;;;0.88;0.88;;;;;;;;;;5124302;28;20211;-84
2022/07/29 07:05:08;;;;;;;1.05;0.85;;;;;;;;;;5125287;28;20229;-85
2022/07/29 07:07:35;;;;;;;1.60;1.05;;;;;;;;;;5123768;28;20729;-85
2022/07/29 07:10:03;;;;;;;0.85;0.85;;;;;;;;;;5125330;28;20199;-85
2022/07/29 07:12:30;;;;;;;0.65;0.65;;;;;;;;;;5124965;28;20199;-84
2022/07/29 07:14:58;;;;;;;3.75;1.40;;;;;;;;;;5114409;28;20257;-81
2022/07/29 07:17:25;;;;;;;0.95;0.90;;;;;;;;;;5102606;28;20239;-83
2022/07/29 07:19:54;;;;;;;1.08;1.02;;;;;;;;;;5104169;28;20266;-84
2022/07/29 07:22:22;;;;;;;1.33;0.90;;;;;;;;;;5102826;28;20250;-83
2022/07/29 07:24:50;;;;;;;0.80;0.80;;;;;;;;;;5098446;28;20256;-85
2022/07/29 07:27:17;;;;;;;0.73;0.73;;;;;;;;;;5081548;28;20205;-85
2022/07/29 07:29:45;;;;;;;3.47;1.05;;;;;;;;;;5082787;28;20201;-83
2022/07/29 07:32:13;;;;;;;5.97;1.42;;;;;;;;;;5081396;28;20280;-85
2022/07/29 07:34:40;;;;;;;3.13;1.92;;;;;;;;;;5082087;28;20256;-83
2022/07/29 07:37:09;;;;;;;23.05;4.20;;;;;;;;;;5081859;28;20337;-84
2022/07/29 07:39:37;;;;;;;14.82;5.30;;;;;;;;;;5082080;28;20201;-85
2022/07/29 07:42:04;;;;;;;4.57;2.08;;;;;;;;;;5082521;28;20193;-83
2022/07/29 07:44:32;;;;;;;1.25;1.10;;;;;;;;;;5087735;28;20255;-83
2022/07/29 07:46:59;;;;;;;3.50;1.83;;;;;;;;;;5102831;28;20196;-83
2022/07/29 07:49:27;;;;;;;4.32;1.70;;;;;;;;;;5101864;28;20235;-83
2022/07/29 07:51:55;;;;;;;1.20;1.10;;;;;;;;;;5103133;28;20718;-85
2022/07/29 07:54:27;;;;;;;1.17;1.05;;;;;;;;;;5101566;28;20315;-84
2022/07/29 07:57:00;;;;;;;1.90;0.90;;;;;;;;;;5080830;28;20195;-85
2022/07/29 07:59:29;;;;;;;0.65;0.65;;;;;;;;;;5081045;28;20203;-84
2022/07/29 08:01:57;;;;;;;0.85;0.85;;;;;;;;;;5079746;28;20200;-84
2022/07/29 08:04:25;;;;;;;0.52;0.52;;;;;;;;;;5078771;28;20245;-83
2022/07/29 08:06:54;;;;;;;1.02;0.73;;;;;;;;;;5079637;28;20606;-82
2022/07/29 08:09:23;;;;;;;0.70;0.70;;;;;;;;;;5078455;28;20658;-83
2022/07/29 08:11:54;;;;;;;0.80;0.80;;;;;;;;;;5079713;28;20185;-85
2022/07/29 08:14:22;;;;;;;1.08;1.00;;;;;;;;;;5083804;28;20704;-84
2022/07/29 08:16:50;;;;;;;1.30;1.20;;;;;;;;;;5100809;28;20200;-84
2022/07/29 08:19:18;;;;;;;1.42;1.20;;;;;;;;;;5100569;28;20207;-84
2022/07/29 08:21:45;;;;;;;0.70;0.70;;;;;;;;;;5101101;28;20204;-84
2022/07/29 08:26:59;;;;;;;0.82;0.82;;;;;;;;;;5082755;28;20266;-85
2022/07/29 08:29:27;;;;;;;1.40;1.30;;;;;;;;;;5083457;28;20208;-84
2022/07/29 08:31:54;;;;;;;2.42;1.30;;;;;;;;;;5084010;28;20205;-85
2022/07/29 08:34:22;;;;;;;1.13;1.10;;;;;;;;;;5083119;28;20233;-84
2022/07/29 08:36:49;;;;;;;1.45;1.15;;;;;;;;;;5086292;28;20205;-83
2022/07/29 08:39:17;;;;;;;1.00;1.00;;;;;;;;;;5082656;28;20262;-84
2022/07/29 08:41:44;;;;;;;1.88;1.55;;;;;;;;;;5083146;28;20205;-86
2022/07/29 08:44:13;;;;;;;1.52;1.05;;;;;;;;;;5084922;28;20256;-85
2022/07/29 08:46:41;;;;;;;0.80;0.80;;;;;;;;;;5102808;28;20212;-85
2022/07/29 08:49:09;;;;;;;0.93;0.82;;;;;;;;;;5101734;28;20568;-84
2022/07/29 08:51:38;;;;;;;1.10;1.00;;;;;;;;;;5103002;28;20239;-84
2022/07/29 08:54:05;;;;;;;0.90;0.90;;;;;;;;;;5103776;28;20920;-84
2022/07/29 08:56:33;;;;;;;1.00;1.00;;;;;;;;;;5103622;28;20683;-85
2022/07/29 08:59:04;;;;;;;1.45;1.27;;;;;;;;;;5104428;28;20222;-85
2022/07/29 09:01:35;;;;;;;1.15;1.15;;;;;;;;;;5104099;28;20192;-84
2022/07/29 09:04:07;;;;;;;1.58;1.33;;;;;;;;;;5100570;28;20257;-84
2022/07/29 09:06:38;;;;;;;0.82;0.82;;;;;;;;;;5097930;28;20279;-82
2022/07/29 09:09:05;;;;;;;1.73;1.60;;;;;;;;;;5099967;28;20184;-83
2022/07/29 09:11:34;;;;;;;0.75;0.73;;;;;;;;;;5100091;28;20562;-85
2022/07/29 09:14:02;;;;;;;1.83;1.20;;;;;;;;;;5098238;28;20216;-86
2022/07/29 09:16:47;;;;;;;1.55;1.20;;;;;;;;;;5075283;28;20197;-85
2022/07/29 09:19:23;;;;;;;1.40;1.30;;;;;;;;;;5075757;28;20243;-87
2022/07/29 09:22:00;;;;;;;1.45;1.35;;;;;;;;;;5076197;28;20181;-88
2022/07/29 09:24:47;;;;;;;1.35;1.25;;;;;;;;;;5075379;28;20224;-86
2022/07/29 09:27:23;;;;;;;0.93;0.93;;;;;;;;;;5074681;28;20201;-85
2022/07/29 09:30:01;;;;;;;0.68;0.68;;;;;;;;;;5075439;28;20204;-85
2022/07/29 09:32:30;;;;;;;1.00;1.00;;;;;;;;;;5075395;28;20661;-85
2022/07/29 09:35:18;;;;;;;2.33;1.02;;;;;;;;;;5075286;28;20708;-86
2022/07/29 09:37:46;;;;;;;1.10;1.00;;;;;;;;;;5075988;28;20216;-84
2022/07/29 09:40:16;;;;;;;1.00;0.88;;;;;;;;;;5075875;28;20231;-85
2022/07/29 09:42:44;;;;;;;1.45;1.30;;;;;;;;;;5075663;28;20197;-86
2022/07/29 09:45:13;;;;;;;1.70;1.48;;;;;;;;;;5101311;23;20252;-88
2022/07/29 09:47:48;;;;;;;1.45;1.35;;;;;;;;;;5095846;28;20283;-86
2022/07/29 09:50:19;;;;;;;1.23;1.20;;;;;;;;;;5096203;28;20270;-86
2022/07/29 09:52:49;;;;;;;1.63;1.52;;;;;;;;;;5096795;28;20184;-86
2022/07/29 09:55:18;;;;;;;0.93;0.93;;;;;;;;;;5096789;28;20262;-89
2022/07/29 09:57:46;;;;;;;2.05;1.48;;;;;;;;;;5094859;28;20192;-89
2022/07/29 10:00:17;;;;;;;1.50;1.40;;;;;;;;;;5097262;28;20257;-86
2022/07/29 10:02:48;;;;;;;1.02;1.00;;;;;;;;;;5098938;28;20200;-85
2022/07/29 10:05:22;;;;;;;1.27;1.17;;;;;;;;;;5101398;28;20216;-86
2022/07/29 10:07:51;;;;;;;2.53;1.90;;;;;;;;;;5101703;28;20183;-87
2022/07/29 10:10:24;;;;;;;1.45;1.25;;;;;;;;;;5101239;28;20192;-86
2022/07/29 10:12:55;;;;;;;1.20;1.10;;;;;;;;;;5103437;28;20298;-87
2022/07/29 10:15:25;;;;;;;1.27;1.13;;;;;;;;;;5089188;28;20698;-86
2022/07/29 10:17:55;;;;;;;1.48;1.30;;;;;;;;;;5080213;28;20611;-85
2022/07/29 10:20:24;;;;;;;1.75;1.60;;;;;;;;;;5079683;28;20197;-86
2022/07/29 10:22:53;;;;;;;1.33;1.23;;;;;;;;;;5078917;28;20258;-86
2022/07/29 10:25:22;;;;;;;2.35;1.35;;;;;;;;;;5070286;28;20279;-86
2022/07/29 10:27:51;;;;;;;2.05;1.38;;;;;;;;;;5059518;28;20210;-86
2022/07/29 10:30:21;;;;;;;1.20;0.90;;;;;;;;;;5059707;28;20213;-86
2022/07/29 10:33:10;;;;;;;2.35;1.20;;;;;;;;;;5058465;28;20220;-86
2022/07/29 10:36:16;;;;;;;1.48;1.20;;;;;;;;;;5058885;28;20210;-85
2022/07/29 10:38:48;;;;;;;1.10;1.00;;;;;;;;;;5058379;28;20638;-86
2022/07/29 10:41:35;;;;;;;1.48;1.20;;;;;;;;;;5060391;28;20186;-86
2022/07/29 10:44:04;;;;;;;3.55;1.30;;;;;;;;;;5059011;28;20670;-86
2022/07/29 10:46:37;;;;;;;1.42;1.33;;;;;;;;;;5059837;28;20291;-87
2022/07/29 10:49:14;;;;;;;1.65;1.25;;;;;;;;;;5060194;28;20186;-86
2022/07/29 10:52:02;;;;;;;1.10;1.10;;;;;;;;;;5061457;28;20312;-86
2022/07/29 10:54:52;;;;;;;1.33;1.23;;;;;;;;;;5058963;28;20229;-87
2022/07/29 10:57:29;;;;;;;1.50;1.40;;;;;;;;;;5060133;28;20239;-85
2022/07/29 11:00:31;;;;;;;1.30;1.20;;;;;;;;;;5060492;28;20181;-86
2022/07/29 11:03:00;;;;;;;1.15;1.08;;;;;;;;;;5053260;28;20267;-86
2022/07/29 11:05:31;;;;;;;0.82;0.80;;;;;;;;;;5060182;28;20590;-86
2022/07/29 11:08:25;;;;;;;4.78;1.67;;;;;;;;;;5061935;28;20182;-86
2022/07/29 11:11:09;;;;;;;1.58;1.30;;;;;;;;;;5061652;28;20618;-86
2022/07/29 11:13:54;;;;;;;1.48;1.40;;;;;;;;;;5061587;28;20279;-87
2022/07/29 11:16:23;;;;;;;2.03;1.23;;;;;;;;;;5059213;28;20233;-86
2022/07/29 11:19:22;;;;;;;1.83;1.73;;;;;;;;;;5059543;28;20213;-86
2022/07/29 11:21:52;;;;;;;1.60;1.38;;;;;;;;;;5060414;28;20719;-85
2022/07/29 11:24:23;;;;;;;1.30;1.20;;;;;;;;;;5060395;28;20222;-86
2022/07/29 11:27:21;;;;;;;1.08;1.08;;;;;;;;;;5061059;28;20208;-86
2022/07/29 11:30:00;;;;;;;1.55;1.45;;;;;;;;;;5061127;28;20635;-86
2022/07/29 11:32:40;;;;;;;1.17;1.10;;;;;;;;;;5059572;28;20213;-86
2022/07/29 11:35:18;;;;;;;1.00;1.00;;;;;;;;;;5061543;28;20210;-86
2022/07/29 11:37:47;;;;;;;1.08;1.08;;;;;;;;;;5060370;28;20308;-87
2022/07/29 11:40:18;;;;;;;1.83;1.60;;;;;;;;;;5060743;28;20220;-86
2022/07/29 11:42:52;;;;;;;1.73;1.63;;;;;;;;;;5059722;28;20209;-86
2022/07/29 11:45:31;;;;;;;1.30;1.20;;;;;;;;;;5072687;28;20272;-85
2022/07/29 11:48:00;;;;;;;1.30;1.20;;;;;;;;;;5079597;28;20216;-85
2022/07/29 11:50:34;;;;;;;1.60;1.50;;;;;;;;;;5081050;28;20200;-86
2022/07/29 11:53:11;;;;;;;1.30;1.20;;;;;;;;;;5079743;28;20258;-86
2022/07/29 11:55:47;;;;;;;1.55;1.45;;;;;;;;;;5079234;28;20188;-86
2022/07/29 11:58:23;;;;;;;2.08;1.50;;;;;;;;;;5069272;28;20186;-86
2022/07/29 12:00:51;;;;;;;1.75;1.65;;;;;;;;;;5062146;28;20258;-85
2022/07/29 12:03:27;;;;;;;1.50;1.40;;;;;;;;;;5060815;28;20251;-85
2022/07/29 12:05:54;;;;;;;1.60;1.50;;;;;;;;;;5059884;28;20224;-86
2022/07/29 12:08:25;;;;;;;1.65;1.55;;;;;;;;;;5059738;28;20236;-85
2022/07/29 12:10:54;;;;;;;1.60;1.50;;;;;;;;;;5059692;28;20198;-87
2022/07/29 12:13:24;;;;;;;1.40;1.30;;;;;;;;;;5057346;28;20713;-86
2022/07/29 12:15:56;;;;;;;1.17;1.17;;;;;;;;;;5058005;28;20578;-86
2022/07/29 12:18:24;;;;;;;1.05;1.05;;;;;;;;;;5058094;28;20213;-86
2022/07/29 12:20:59;;;;;;;1.55;1.40;;;;;;;;;;5058982;28;20650;-86
2022/07/29 12:23:28;;;;;;;1.13;1.02;;;;;;;;;;5059145;28;20271;-85
2022/07/29 12:25:56;;;;;;;1.27;1.17;;;;;;;;;;5058618;28;20292;-85
2022/07/29 12:28:24;;;;;;;1.90;1.58;;;;;;;;;;5057268;28;20190;-85
2022/07/29 12:30:52;;;;;;;1.52;1.42;;;;;;;;;;5058536;28;20197;-85
2022/07/29 12:33:23;;;;;;;1.40;1.30;;;;;;;;;;5058942;28;20224;-86
2022/07/29 12:35:54;;;;;;;1.35;1.25;;;;;;;;;;5059979;28;20200;-86
2022/07/29 12:38:22;;;;;;;1.38;1.20;;;;;;;;;;5058050;28;20655;-86
2022/07/29 12:40:52;;;;;;;1.35;1.25;;;;;;;;;;5058560;28;20220;-86
2022/07/29 12:43:21;;;;;;;1.23;1.20;;;;;;;;;;5060112;28;20294;-85
2022/07/29 12:45:53;;;;;;;1.60;1.48;;;;;;;;;;5074660;28;20649;-85
2022/07/29 12:48:35;;;;;;;1.55;1.48;;;;;;;;;;5079521;28;20197;-85
2022/07/29 12:51:05;;;;;;;1.38;1.27;;;;;;;;;;5078758;28;20184;-85
2022/07/29 12:53:33;;;;;;;1.80;1.70;;;;;;;;;;5078504;28;20654;-86
2022/07/29 12:56:03;;;;;;;1.80;1.70;;;;;;;;;;5079435;28;20414;-85
2022/07/29 12:58:34;;;;;;;1.80;1.50;;;;;;;;;;5078250;28;20221;-86
2022/07/29 13:01:14;;;;;;;2.15;1.67;;;;;;;;;;5078319;28;20207;-86
2022/07/29 13:03:52;;;;;;;1.27;1.17;;;;;;;;;;5078486;28;20251;-85
2022/07/29 13:06:31;;;;;;;1.40;1.30;;;;;;;;;;5082987;28;20181;-88
2022/07/29 13:09:05;;;;;;;1.50;1.40;;;;;;;;;;5082282;28;20715;-86
2022/07/29 13:11:35;;;;;;;2.00;1.73;;;;;;;;;;5081836;28;20185;-86
2022/07/29 13:14:02;;;;;;;1.80;1.70;;;;;;;;;;5081783;28;20704;-85
2022/07/29 13:16:30;;;;;;;1.75;1.65;;;;;;;;;;5060326;28;20228;-85
2022/07/29 13:19:10;;;;;;;1.85;1.70;;;;;;;;;;5061127;28;20201;-85
2022/07/29 13:21:39;;;;;;;2.05;1.95;;;;;;;;;;5061584;28;20193;-87
2022/07/29 13:24:08;;;;;;;1.27;1.17;;;;;;;;;;5059764;28;20225;-85
2022/07/29 13:26:41;;;;;;;1.92;1.67;;;;;;;;;;5059479;28;20185;-86
2022/07/29 13:29:18;;;;;;;1.95;1.50;;;;;;;;;;5058381;28;20162;-86
2022/07/29 13:31:45;;;;;;;2.58;1.90;;;;;;;;;;5061432;28;20248;-85
2022/07/29 13:34:15;;;;;;;2.85;1.60;;;;;;;;;;5058039;28;20210;-86
2022/07/29 13:36:43;;;;;;;2.30;2.10;;;;;;;;;;5058009;28;20247;-86
2022/07/29 13:39:11;;;;;;;1.70;1.60;;;;;;;;;;5056310;28;20214;-87
2022/07/29 13:41:40;;;;;;;2.00;1.80;;;;;;;;;;5056769;28;20205;-86
2022/07/29 13:44:07;;;;;;;1.70;1.60;;;;;;;;;;5058245;28;20263;-86
2022/07/29 13:46:35;;;;;;;1.55;1.45;;;;;;;;;;5077205;28;20208;-86
2022/07/29 13:49:06;;;;;;;1.77;1.67;;;;;;;;;;5077698;28;20216;-86
2022/07/29 13:51:33;;;;;;;1.80;1.70;;;;;;;;;;5058328;28;20239;-85
2022/07/29 13:54:01;;;;;;;1.60;1.50;;;;;;;;;;5056690;28;20225;-86
2022/07/29 13:56:29;;;;;;;2.65;1.70;;;;;;;;;;5068958;28;20204;-86
2022/07/29 13:58:58;;;;;;;1.35;1.25;;;;;;;;;;5076665;28;20591;-86
2022/07/29 14:01:27;;;;;;;1.50;1.40;;;;;;;;;;5076814;28;20283;-86
2022/07/29 14:03:55;;;;;;;3.08;1.50;;;;;;;;;;5076358;28;20225;-84
2022/07/29 14:06:23;;;;;;;1.70;1.60;;;;;;;;;;5076549;28;20299;-85
2022/07/29 14:08:50;;;;;;;2.22;1.83;;;;;;;;;;5077387;28;20682;-85
2022/07/29 14:11:18;;;;;;;1.70;1.60;;;;;;;;;;5077377;28;20192;-85
2022/07/29 14:13:46;;;;;;;1.95;1.58;;;;;;;;;;5076866;28;20281;-88
2022/07/29 14:16:15;;;;;;;1.52;1.42;;;;;;;;;;5058721;28;20202;-85
2022/07/29 14:18:43;;;;;;;1.73;1.63;;;;;;;;;;5057381;28;20221;-85
2022/07/29 14:21:11;;;;;;;1.25;1.20;;;;;;;;;;5057222;28;20181;-85
2022/07/29 14:23:38;;;;;;;1.00;1.00;;;;;;;;;;5057913;28;20217;-86
2022/07/29 14:26:06;;;;;;;1.40;1.30;;;;;;;;;;5066102;28;20205;-86
2022/07/29 14:28:34;;;;;;;1.40;1.30;;;;;;;;;;5075924;28;20291;-89
2022/07/29 14:31:01;;;;;;;1.70;1.60;;;;;;;;;;5075423;28;20224;-86
2022/07/29 14:33:30;;;;;;;1.95;1.77;;;;;;;;;;5076710;28;20311;-87
2022/07/29 14:35:58;;;;;;;1.60;1.50;;;;;;;;;;5076564;28;20288;-86
2022/07/29 14:38:25;;;;;;;1.60;1.50;;;;;;;;;;5077358;28;20217;-85
2022/07/29 14:40:53;;;;;;;1.73;1.63;;;;;;;;;;5076695;28;20200;-86
2022/07/29 14:43:20;;;;;;;1.95;1.83;;;;;;;;;;5077545;28;20228;-85
2022/07/29 14:45:48;;;;;;;1.80;1.70;;;;;;;;;;5077741;28;20209;-86
2022/07/29 14:48:16;;;;;;;1.98;1.88;;;;;;;;;;5077367;28;20619;-85
2022/07/29 14:50:45;;;;;;;1.75;1.65;;;;;;;;;;5092969;28;20196;-86
2022/07/29 14:53:13;;;;;;;1.85;1.70;;;;;;;;;;5100207;28;20249;-86
2022/07/29 14:55:41;;;;;;;1.63;1.52;;;;;;;;;;5095010;28;20574;-87
2022/07/29 14:58:14;;;;;;;1.52;1.50;;;;;;;;;;5080681;28;20265;-86
2022/07/29 15:00:42;;;;;;;1.48;1.38;;;;;;;;;;5080333;28;20201;-86
2022/07/29 15:03:10;;;;;;;1.25;1.25;;;;;;;;;;5080219;28;20212;-86
2022/07/29 15:05:38;;;;;;;2.42;1.73;;;;;;;;;;5079956;28;20243;-86
2022/07/29 15:08:08;;;;;;;3.35;1.83;;;;;;;;;;5080340;28;20704;-87
2022/07/29 15:10:36;;;;;;;2.35;2.15;;;;;;;;;;5079785;28;20709;-88